Time;durP1;ratioP1;P1;durP2;ratioP2;P2;SDS_P1;SDS_P2;PMS_P1;PMS_P2;Temp;Humidity;BMP_temperature;BMP_pressure;BME280_temperature;BME280_humidity;BME280_pressure;Samples;Min_cycle;Max_cycle;Signal;HPM_P1;HPM_P2
2022/07/15 00:00:40;;;;;;;;;;;24.20;52.10;;;;;;5076152;28;20381;-73
2022/07/15 00:03:05;;;;;;;;;;;24.20;51.90;;;;;;5077435;28;19909;-73
2022/07/15 00:05:31;;;;;;;;;;;24.20;52.10;;;;;;5077552;28;19909;-73
2022/07/15 00:08:00;;;;;;;;;;;24.10;52.10;;;;;;5077494;28;20003;-73
2022/07/15 00:10:26;;;;;;;;;;;24.10;52.00;;;;;;5077344;28;20294;-73
2022/07/15 00:12:53;;;;;;;;;;;24.20;52.30;;;;;;5077219;28;19913;-72
2022/07/15 00:15:20;;;;;;;;;;;24.10;52.20;;;;;;5077415;28;19962;-73
2022/07/15 00:17:46;;;;;;;;;;;24.10;52.30;;;;;;5059394;28;19968;-74
2022/07/15 00:20:12;;;;;;;;;;;24.10;52.40;;;;;;5077463;28;20393;-73
2022/07/15 00:22:38;;;;;;;;;;;24.10;52.50;;;;;;5077090;28;19916;-73
2022/07/15 00:25:04;;;;;;;;;;;24.00;52.40;;;;;;5059011;28;20388;-73
2022/07/15 00:27:29;;;;;;;;;;;24.00;52.30;;;;;;5077174;28;19908;-74
2022/07/15 00:29:55;;;;;;;;;;;24.00;52.50;;;;;;5077037;28;20019;-74
2022/07/15 00:32:21;;;;;;;;;;;24.00;52.50;;;;;;5076955;28;19970;-74
2022/07/15 00:34:47;;;;;;;;;;;24.00;52.50;;;;;;5076891;28;19963;-73
2022/07/15 00:37:12;;;;;;;;;;;24.00;52.70;;;;;;5076810;28;19909;-73
2022/07/15 00:39:38;;;;;;;;;;;24.00;52.80;;;;;;5077125;28;19924;-74
2022/07/15 00:42:03;;;;;;;;;;;24.00;52.90;;;;;;5076550;28;20290;-73
2022/07/15 00:44:29;;;;;;;;;;;23.90;52.70;;;;;;5077292;28;19908;-74
2022/07/15 00:46:54;;;;;;;;;;;23.90;53.20;;;;;;5058784;28;19908;-73
2022/07/15 00:49:20;;;;;;;;;;;23.90;53.00;;;;;;5076507;28;20437;-74
2022/07/15 00:51:51;;;;;;;;;;;23.90;53.10;;;;;;5058978;28;20003;-74
2022/07/15 00:54:22;;;;;;;;;;;23.80;53.00;;;;;;5076684;28;19908;-74
2022/07/15 00:56:54;;;;;;;;;;;23.80;53.30;;;;;;5058606;28;20346;-74
2022/07/15 00:59:21;;;;;;;;;;;23.80;53.30;;;;;;5076518;28;19912;-74
2022/07/15 01:01:46;;;;;;;;;;;23.80;53.30;;;;;;5075717;28;19909;-74
2022/07/15 01:04:12;;;;;;;;;;;23.70;53.30;;;;;;5076524;28;20003;-74
2022/07/15 01:06:38;;;;;;;;;;;23.70;53.30;;;;;;5076603;28;20351;-74
2022/07/15 01:09:04;;;;;;;;;;;23.70;53.50;;;;;;5076386;28;19934;-74
2022/07/15 01:11:30;;;;;;;;;;;23.70;53.50;;;;;;5076016;28;19965;-74
2022/07/15 01:13:56;;;;;;;;;;;23.70;53.50;;;;;;5076301;28;19916;-74
2022/07/15 01:16:22;;;;;;;;;;;23.70;53.60;;;;;;5058305;28;19913;-74
2022/07/15 01:18:47;;;;;;;;;;;23.70;53.60;;;;;;5076258;28;19915;-73
2022/07/15 01:21:13;;;;;;;;;;;23.70;53.60;;;;;;5075976;28;19908;-73
2022/07/15 01:23:42;;;;;;;;;;;23.70;53.70;;;;;;5058157;28;19912;-73
2022/07/15 01:26:11;;;;;;;;;;;23.70;53.70;;;;;;5076011;28;19947;-72
2022/07/15 01:28:37;;;;;;;;;;;23.70;53.80;;;;;;5075814;28;19935;-74
2022/07/15 01:31:02;;;;;;;;;;;23.70;53.90;;;;;;5076048;28;19916;-73
2022/07/15 01:33:29;;;;;;;;;;;23.60;53.80;;;;;;5076023;28;19909;-73
2022/07/15 01:35:55;;;;;;;;;;;23.60;53.90;;;;;;5075593;28;19908;-73
2022/07/15 01:38:21;;;;;;;;;;;23.60;54.00;;;;;;5057538;28;20434;-74
2022/07/15 01:40:46;;;;;;;;;;;23.60;54.00;;;;;;5075529;28;19927;-74
2022/07/15 01:43:12;;;;;;;;;;;23.60;54.20;;;;;;5075892;28;19958;-74
2022/07/15 01:45:41;;;;;;;;;;;23.60;54.10;;;;;;5075864;28;19920;-73
2022/07/15 01:48:06;;;;;;;;;;;23.50;54.10;;;;;;5075534;28;19919;-74
2022/07/15 01:50:32;;;;;;;;;;;23.50;54.10;;;;;;5075276;28;19913;-73
2022/07/15 01:52:57;;;;;;;;;;;23.50;54.30;;;;;;5075181;28;19915;-74
2022/07/15 01:55:23;;;;;;;;;;;23.50;54.20;;;;;;5075385;28;19915;-73
2022/07/15 01:57:49;;;;;;;;;;;23.50;54.30;;;;;;5075327;28;19909;-73
2022/07/15 02:00:16;;;;;;;;;;;23.50;54.30;;;;;;5075211;28;19915;-74
2022/07/15 02:02:41;;;;;;;;;;;23.50;54.40;;;;;;5075285;28;20010;-74
2022/07/15 02:05:07;;;;;;;;;;;23.50;54.40;;;;;;5075083;28;20022;-73
2022/07/15 02:07:33;;;;;;;;;;;23.50;54.30;;;;;;5075156;28;19974;-74
2022/07/15 02:09:58;;;;;;;;;;;23.50;54.50;;;;;;5074673;28;19916;-74
2022/07/15 02:12:25;;;;;;;;;;;23.50;54.50;;;;;;5075227;28;19909;-74
2022/07/15 02:14:50;;;;;;;;;;;23.50;55.10;;;;;;5075321;28;19954;-73
2022/07/15 02:17:16;;;;;;;;;;;23.50;54.70;;;;;;5074881;28;20324;-74
2022/07/15 02:19:41;;;;;;;;;;;23.50;54.70;;;;;;5075562;28;19935;-73
2022/07/15 02:22:07;;;;;;;;;;;23.40;54.60;;;;;;5074378;28;20397;-73
2022/07/15 02:24:32;;;;;;;;;;;23.50;54.70;;;;;;5074683;28;19909;-74
2022/07/15 02:26:58;;;;;;;;;;;23.40;54.60;;;;;;5074709;28;19908;-73
2022/07/15 02:29:23;;;;;;;;;;;23.40;54.60;;;;;;5074478;28;19938;-74
2022/07/15 02:31:49;;;;;;;;;;;23.50;54.80;;;;;;5074593;28;19912;-73
2022/07/15 02:34:14;;;;;;;;;;;22.80;54.40;;;;;;5074779;28;19912;-73
2022/07/15 02:36:40;;;;;;;;;;;23.50;54.80;;;;;;5056456;28;19916;-73
2022/07/15 02:39:05;;;;;;;;;;;23.50;54.90;;;;;;5074121;28;19920;-73
2022/07/15 02:41:31;;;;;;;;;;;23.40;54.80;;;;;;5074813;28;19959;-73
2022/07/15 02:43:59;;;;;;;;;;;23.40;54.80;;;;;;5074331;28;19912;-73
2022/07/15 02:46:24;;;;;;;;;;;23.50;54.80;;;;;;5074257;28;19923;-73
2022/07/15 02:48:50;;;;;;;;;;;23.40;54.90;;;;;;5074347;28;19912;-74
2022/07/15 02:51:15;;;;;;;;;;;23.50;54.90;;;;;;5074136;28;19966;-74
2022/07/15 02:53:41;;;;;;;;;;;23.50;55.00;;;;;;5074448;28;19915;-74
2022/07/15 02:56:06;;;;;;;;;;;23.50;55.00;;;;;;5074623;28;19915;-73
2022/07/15 02:58:32;;;;;;;;;;;23.50;55.00;;;;;;5074256;28;20322;-74
2022/07/15 03:00:59;;;;;;;;;;;23.50;55.00;;;;;;5074332;28;20003;-74
2022/07/15 03:03:27;;;;;;;;;;;23.50;55.10;;;;;;5074346;28;19909;-74
2022/07/15 03:05:54;;;;;;;;;;;23.50;55.10;;;;;;5073927;28;19916;-74
2022/07/15 03:08:20;;;;;;;;;;;23.60;55.60;;;;;;5074149;28;20266;-73
2022/07/15 03:10:46;;;;;;;;;;;23.60;55.00;;;;;;5074089;28;19913;-73
2022/07/15 03:13:11;;;;;;;;;;;23.60;55.00;;;;;;5039628;28;19935;-74
2022/07/15 03:15:37;;;;;;;;;;;23.70;55.20;;;;;;5073970;28;19909;-74
2022/07/15 03:18:02;;;;;;;;;;;23.60;55.00;;;;;;5074601;28;19913;-74
2022/07/15 03:20:28;;;;;;;;;;;23.60;55.10;;;;;;5073851;28;20364;-74
2022/07/15 03:22:54;;;;;;;;;;;23.70;55.10;;;;;;5073779;28;20381;-73
2022/07/15 03:25:19;;;;;;;;;;;23.70;55.00;;;;;;5073873;28;19908;-73
2022/07/15 03:27:45;;;;;;;;;;;23.70;55.10;;;;;;5056297;28;20351;-74
2022/07/15 03:30:10;;;;;;;;;;;23.70;55.00;;;;;;5073846;28;19951;-73
2022/07/15 03:32:36;;;;;;;;;;;23.70;55.00;;;;;;5074302;28;19912;-74
2022/07/15 03:35:01;;;;;;;;;;;23.70;55.10;;;;;;5077184;28;19912;-74
2022/07/15 03:37:27;;;;;;;;;;;23.70;55.00;;;;;;5077819;28;19908;-74
2022/07/15 03:39:52;;;;;;;;;;;23.70;55.00;;;;;;5077751;28;19971;-73
2022/07/15 03:42:18;;;;;;;;;;;23.70;55.00;;;;;;5078073;28;19908;-74
2022/07/15 03:44:43;;;;;;;;;;;23.80;55.00;;;;;;5077783;28;19935;-75
2022/07/15 03:47:09;;;;;;;;;;;23.80;55.10;;;;;;5059761;28;19908;-73
2022/07/15 03:49:35;;;;;;;;;;;23.80;55.00;;;;;;5077582;28;19959;-73
2022/07/15 03:52:00;;;;;;;;;;;23.80;55.00;;;;;;5060724;28;19912;-73
2022/07/15 03:54:26;;;;;;;;;;;23.90;55.00;;;;;;5059967;28;20258;-73
2022/07/15 03:56:51;;;;;;;;;;;23.90;55.10;;;;;;5077752;28;20352;-74
2022/07/15 03:59:17;;;;;;;;;;;23.90;55.10;;;;;;5059561;28;19908;-73
2022/07/15 04:01:43;;;;;;;;;;;23.90;55.00;;;;;;5077543;28;19991;-74
2022/07/15 04:04:09;;;;;;;;;;;24.00;55.00;;;;;;5059559;28;19936;-74
2022/07/15 04:06:34;;;;;;;;;;;24.00;55.10;;;;;;5077748;28;19912;-73
2022/07/15 04:09:00;;;;;;;;;;;23.90;55.00;;;;;;5077290;28;19967;-74
2022/07/15 04:11:25;;;;;;;;;;;24.00;55.10;;;;;;5077469;28;19916;-74
2022/07/15 04:13:51;;;;;;;;;;;24.00;55.10;;;;;;5077252;28;20270;-74
2022/07/15 04:16:16;;;;;;;;;;;24.00;55.10;;;;;;5077574;28;19912;-74
2022/07/15 04:18:42;;;;;;;;;;;24.00;55.00;;;;;;5077228;28;20010;-73
2022/07/15 04:21:08;;;;;;;;;;;24.00;55.10;;;;;;5077476;28;19915;-73
2022/07/15 04:23:33;;;;;;;;;;;24.10;55.00;;;;;;5077413;28;19912;-74
2022/07/15 04:25:59;;;;;;;;;;;24.10;55.00;;;;;;5076948;28;19916;-75
2022/07/15 04:28:25;;;;;;;;;;;24.20;55.10;;;;;;5076879;28;20258;-74
2022/07/15 04:30:51;;;;;;;;;;;24.20;55.00;;;;;;5076864;28;19913;-74
2022/07/15 04:33:17;;;;;;;;;;;24.20;55.00;;;;;;5076648;28;19915;-74
2022/07/15 04:35:43;;;;;;;;;;;24.20;55.00;;;;;;5058667;28;19961;-74
2022/07/15 04:38:09;;;;;;;;;;;24.20;55.00;;;;;;5059212;28;19912;-74
2022/07/15 04:40:35;;;;;;;;;;;24.20;54.90;;;;;;5076679;28;20436;-75
2022/07/15 04:43:01;;;;;;;;;;;24.30;54.90;;;;;;5076987;28;19955;-74
2022/07/15 04:45:26;;;;;;;;;;;24.30;55.50;;;;;;5077053;28;20317;-74
2022/07/15 04:47:52;;;;;;;;;;;24.40;54.90;;;;;;5059771;28;19951;-73
2022/07/15 04:53:02;;;;;;;;;;;24.50;54.90;;;;;;5076793;28;20278;-74
2022/07/15 04:55:27;;;;;;;;;;;24.60;54.70;;;;;;5058601;28;19928;-74
2022/07/15 04:57:53;;;;;;;;;;;24.70;54.60;;;;;;5076495;28;19932;-74
2022/07/15 05:00:19;;;;;;;;;;;24.80;54.60;;;;;;5076271;28;19908;-74
2022/07/15 05:02:44;;;;;;;;;;;24.80;54.40;;;;;;5076311;28;19908;-74
2022/07/15 05:05:10;;;;;;;;;;;24.90;54.30;;;;;;5076828;28;19908;-74
2022/07/15 05:07:36;;;;;;;;;;;25.00;54.20;;;;;;5076386;28;20034;-74
2022/07/15 05:10:03;;;;;;;;;;;25.00;54.20;;;;;;5076050;28;20086;-74
2022/07/15 05:12:28;;;;;;;;;;;25.10;54.70;;;;;;5058592;28;20453;-73
2022/07/15 05:14:54;;;;;;;;;;;25.10;54.00;;;;;;5076262;28;19912;-73
2022/07/15 05:17:20;;;;;;;;;;;25.10;54.20;;;;;;5076253;28;20333;-73
2022/07/15 05:19:45;;;;;;;;;;;25.10;53.90;;;;;;5075948;28;19915;-74
2022/07/15 05:22:11;;;;;;;;;;;25.10;53.90;;;;;;5076012;28;19915;-74
2022/07/15 05:24:37;;;;;;;;;;;25.10;53.90;;;;;;5075890;28;20386;-74
2022/07/15 05:27:02;;;;;;;;;;;25.20;53.90;;;;;;5076081;28;20331;-74
2022/07/15 05:29:28;;;;;;;;;;;25.20;53.80;;;;;;5075626;28;20359;-74
2022/07/15 05:31:54;;;;;;;;;;;25.30;53.90;;;;;;5075462;28;20011;-74
2022/07/15 05:34:19;;;;;;;;;;;25.30;53.80;;;;;;5058124;28;19913;-74
2022/07/15 05:36:45;;;;;;;;;;;25.30;53.80;;;;;;5075816;28;20370;-74
2022/07/15 05:39:10;;;;;;;;;;;25.40;53.80;;;;;;5075330;28;19963;-73
2022/07/15 05:41:36;;;;;;;;;;;25.40;53.70;;;;;;5057677;28;19908;-74
2022/07/15 05:44:02;;;;;;;;;;;25.50;54.40;;;;;;5075331;28;19912;-74
2022/07/15 05:46:27;;;;;;;;;;;25.60;53.70;;;;;;5075765;28;19920;-74
2022/07/15 05:48:53;;;;;;;;;;;25.60;53.60;;;;;;5075407;28;19958;-74
2022/07/15 05:51:18;;;;;;;;;;;25.60;53.50;;;;;;5075686;28;19928;-73
2022/07/15 05:53:44;;;;;;;;;;;25.70;53.60;;;;;;5075756;28;19908;-72
2022/07/15 05:56:10;;;;;;;;;;;25.70;53.40;;;;;;5075422;28;19915;-74
2022/07/15 05:58:35;;;;;;;;;;;25.80;53.50;;;;;;5057326;28;19908;-75
2022/07/15 06:01:01;;;;;;;;;;;25.80;53.40;;;;;;5075201;28;19966;-74
2022/07/15 06:03:27;;;;;;;;;;;25.90;53.40;;;;;;5075512;28;19952;-74
2022/07/15 06:05:52;;;;;;;;;;;25.90;53.30;;;;;;5075240;28;20277;-74
2022/07/15 06:08:18;;;;;;;;;;;25.90;53.30;;;;;;5074832;28;20325;-74
2022/07/15 06:10:44;;;;;;;;;;;26.00;53.30;;;;;;5074635;28;19912;-75
2022/07/15 06:13:09;;;;;;;;;;;26.00;53.30;;;;;;5075095;28;19967;-76
2022/07/15 06:15:36;;;;;;;;;;;26.00;53.20;;;;;;5074573;28;20313;-74
2022/07/15 06:18:02;;;;;;;;;;;26.00;53.10;;;;;;5056723;28;19966;-74
2022/07/15 06:20:28;;;;;;;;;;;26.10;53.00;;;;;;5074674;28;19909;-73
2022/07/15 06:22:53;;;;;;;;;;;26.10;53.00;;;;;;5074854;28;19909;-74
2022/07/15 06:25:19;;;;;;;;;;;26.10;52.90;;;;;;5074603;28;19908;-75
2022/07/15 06:27:44;;;;;;;;;;;26.20;53.00;;;;;;5074782;28;19966;-75
2022/07/15 06:30:10;;;;;;;;;;;26.20;52.90;;;;;;5074811;28;19924;-74
2022/07/15 06:32:36;;;;;;;;;;;26.30;52.90;;;;;;5074705;28;20027;-74
2022/07/15 06:35:02;;;;;;;;;;;26.30;52.80;;;;;;5076311;28;19962;-74
2022/07/15 06:37:27;;;;;;;;;;;26.40;52.80;;;;;;5074720;28;19915;-73
2022/07/15 06:39:54;;;;;;;;;;;26.50;52.80;;;;;;5074403;28;19927;-73
2022/07/15 06:42:20;;;;;;;;;;;26.50;52.70;;;;;;5074431;28;20431;-75
2022/07/15 06:44:46;;;;;;;;;;;26.60;52.70;;;;;;5074472;28;20018;-73
2022/07/15 06:47:12;;;;;;;;;;;26.60;52.60;;;;;;5056296;28;19919;-74
2022/07/15 06:49:38;;;;;;;;;;;26.60;52.50;;;;;;5074205;28;19963;-74
2022/07/15 06:52:04;;;;;;;;;;;26.70;52.50;;;;;;5074261;28;19920;-75
2022/07/15 06:54:30;;;;;;;;;;;26.70;52.50;;;;;;5074243;28;20274;-74
2022/07/15 06:56:56;;;;;;;;;;;26.70;52.40;;;;;;5056134;28;19908;-77
2022/07/15 06:59:22;;;;;;;;;;;26.80;52.40;;;;;;5073784;28;19935;-74
2022/07/15 07:01:47;;;;;;;;;;;26.80;52.30;;;;;;5073886;28;19908;-73
2022/07/15 07:04:13;;;;;;;;;;;26.80;52.30;;;;;;5074035;28;19924;-75
2022/07/15 07:06:38;;;;;;;;;;;26.80;52.30;;;;;;5074163;28;20239;-75
2022/07/15 07:09:04;;;;;;;;;;;26.90;52.20;;;;;;5055703;28;19982;-77
2022/07/15 07:11:29;;;;;;;;;;;26.90;52.10;;;;;;5074121;28;19987;-75
2022/07/15 07:13:55;;;;;;;;;;;27.00;52.10;;;;;;5073721;28;19908;-75
2022/07/15 07:16:21;;;;;;;;;;;27.10;52.10;;;;;;5073955;28;20393;-75
2022/07/15 07:18:47;;;;;;;;;;;27.10;51.90;;;;;;5073992;28;19962;-75
2022/07/15 07:21:13;;;;;;;;;;;27.10;51.80;;;;;;5073936;28;19978;-75
2022/07/15 07:23:39;;;;;;;;;;;27.20;51.80;;;;;;5073806;28;19971;-75
2022/07/15 07:26:05;;;;;;;;;;;27.30;51.70;;;;;;5055921;28;19915;-74
2022/07/15 07:28:31;;;;;;;;;;;27.40;51.70;;;;;;5073657;28;19912;-74
2022/07/15 07:30:56;;;;;;;;;;;27.40;51.60;;;;;;5073772;28;19913;-74
2022/07/15 07:33:22;;;;;;;;;;;27.40;51.50;;;;;;5073871;28;19912;-74
2022/07/15 07:35:48;;;;;;;;;;;27.50;51.50;;;;;;5073656;28;19930;-75
2022/07/15 07:38:13;;;;;;;;;;;27.40;51.40;;;;;;5073490;28;20282;-74
2022/07/15 07:40:39;;;;;;;;;;;27.50;51.40;;;;;;5074292;28;19921;-74
2022/07/15 07:43:04;;;;;;;;;;;27.50;51.30;;;;;;5073528;28;19915;-74
2022/07/15 07:45:30;;;;;;;;;;;27.60;51.30;;;;;;5073855;28;19924;-74
2022/07/15 07:47:56;;;;;;;;;;;27.60;51.20;;;;;;5073615;28;20303;-73
2022/07/15 07:50:22;;;;;;;;;;;27.70;51.20;;;;;;5073439;28;19955;-74
2022/07/15 07:52:47;;;;;;;;;;;27.70;51.10;;;;;;5073592;28;20003;-74
2022/07/15 07:55:14;;;;;;;;;;;27.80;51.10;;;;;;5073662;28;19930;-75
2022/07/15 07:57:50;;;;;;;;;;;27.80;51.60;;;;;;5073596;28;20313;-74
2022/07/15 08:00:16;;;;;;;;;;;27.80;50.90;;;;;;5073603;28;20004;-75
2022/07/15 08:02:41;;;;;;;;;;;27.80;50.90;;;;;;5072447;28;19944;-74
2022/07/15 08:05:08;;;;;;;;;;;27.90;50.90;;;;;;5073628;28;19947;-75
2022/07/15 08:07:34;;;;;;;;;;;28.00;50.90;;;;;;5073519;28;19909;-74
2022/07/15 08:10:00;;;;;;;;;;;28.00;50.90;;;;;;5073301;28;20347;-74
2022/07/15 08:12:25;;;;;;;;;;;28.00;50.80;;;;;;5055926;28;20007;-74
2022/07/15 08:14:54;;;;;;;;;;;28.00;50.70;;;;;;5073364;28;20082;-75
2022/07/15 08:17:20;;;;;;;;;;;28.00;50.70;;;;;;5073515;28;20248;-74
2022/07/15 08:19:46;;;;;;;;;;;28.10;50.70;;;;;;5073056;28;19909;-74
2022/07/15 08:22:11;;;;;;;;;;;28.10;50.70;;;;;;5058682;28;20425;-74
2022/07/15 08:24:37;;;;;;;;;;;28.10;50.60;;;;;;5076803;28;19920;-74
2022/07/15 08:27:02;;;;;;;;;;;28.20;50.60;;;;;;5077106;28;19915;-77
2022/07/15 08:29:28;;;;;;;;;;;28.20;50.60;;;;;;5077218;28;19916;-73
2022/07/15 08:31:54;;;;;;;;;;;28.20;50.50;;;;;;5076859;28;20003;-74
2022/07/15 08:34:19;;;;;;;;;;;28.20;50.50;;;;;;5077213;28;19913;-74
2022/07/15 08:36:45;;;;;;;;;;;28.10;50.40;;;;;;5076809;28;20007;-74
2022/07/15 08:39:11;;;;;;;;;;;28.00;50.40;;;;;;5054310;28;19924;-75
2022/07/15 08:41:37;;;;;;;;;;;28.00;50.50;;;;;;5038546;28;19916;-74
2022/07/15 08:44:03;;;;;;;;;;;27.90;50.50;;;;;;5056613;28;19909;-75
2022/07/15 08:46:31;;;;;;;;;;;27.80;50.60;;;;;;5056698;28;19979;-74
2022/07/15 08:48:59;;;;;;;;;;;27.70;50.60;;;;;;5056472;28;19967;-75
2022/07/15 08:51:25;;;;;;;;;;;27.70;50.70;;;;;;5056264;28;19913;-73
2022/07/15 08:53:51;;;;;;;;;;;27.70;50.80;;;;;;5056451;28;19916;-74
2022/07/15 08:56:18;;;;;;;;;;;27.60;50.80;;;;;;5056468;28;20008;-74
2022/07/15 08:58:44;;;;;;;;;;;27.60;50.80;;;;;;5056113;28;20307;-74
2022/07/15 09:01:10;;;;;;;;;;;27.60;50.90;;;;;;5056153;28;19955;-74
2022/07/15 09:03:35;;;;;;;;;;;27.60;50.90;;;;;;5056027;28;19947;-74
2022/07/15 09:06:01;;;;;;;;;;;27.60;50.90;;;;;;5055839;28;19915;-75
2022/07/15 09:08:26;;;;;;;;;;;27.60;50.90;;;;;;5056270;28;19920;-74
2022/07/15 09:10:53;;;;;;;;;;;27.60;50.80;;;;;;5056373;28;19916;-74
2022/07/15 09:13:32;;;;;;;;;;;27.60;51.50;;;;;;5055880;28;20272;-74
2022/07/15 09:16:00;;;;;;;;;;;27.60;50.90;;;;;;5056221;28;19967;-75
2022/07/15 09:18:27;;;;;;;;;;;27.50;50.80;;;;;;5056068;28;19932;-75
2022/07/15 09:20:53;;;;;;;;;;;27.50;50.80;;;;;;5055878;28;19920;-74
2022/07/15 09:23:21;;;;;;;;;;;27.50;50.90;;;;;;5056316;28;20278;-74
2022/07/15 09:25:50;;;;;;;;;;;27.50;50.80;;;;;;5055962;28;19912;-74
2022/07/15 09:28:15;;;;;;;;;;;27.50;50.80;;;;;;5055543;28;19913;-73
2022/07/15 09:33:43;;;;;;;;;;;27.40;50.70;;;;;;5056710;28;20020;-75
2022/07/15 09:36:15;;;;;;;;;;;27.50;50.80;;;;;;5056138;28;19909;-74
2022/07/15 09:38:40;;;;;;;;;;;27.50;50.80;;;;;;5037505;28;19963;-74
2022/07/15 09:41:21;;;;;;;;;;;27.50;50.80;;;;;;5037477;28;19920;-75
2022/07/15 09:43:49;;;;;;;;;;;27.50;50.80;;;;;;5055090;28;20290;-74
2022/07/15 09:46:15;;;;;;;;;;;27.50;50.70;;;;;;5055967;28;19924;-73
2022/07/15 09:48:43;;;;;;;;;;;27.50;50.70;;;;;;5054569;28;20172;-74
2022/07/15 09:51:09;;;;;;;;;;;27.50;50.60;;;;;;5055162;28;19991;-74
2022/07/15 09:53:35;;;;;;;;;;;27.50;50.60;;;;;;5037530;28;19916;-75
2022/07/15 09:56:02;;;;;;;;;;;27.60;50.60;;;;;;5055096;28;19915;-74
2022/07/15 09:58:28;;;;;;;;;;;27.60;50.50;;;;;;5037510;28;20366;-73
2022/07/15 10:00:53;;;;;;;;;;;27.60;50.50;;;;;;5020816;28;19908;-75
2022/07/15 10:03:22;;;;;;;;;;;27.60;50.40;;;;;;5055060;28;19955;-75
2022/07/15 10:05:50;;;;;;;;;;;27.70;50.50;;;;;;5054994;28;19999;-74
2022/07/15 10:08:17;;;;;;;;;;;27.60;50.30;;;;;;5055477;28;20406;-74
2022/07/15 10:10:42;;;;;;;;;;;27.70;50.30;;;;;;5054865;28;20012;-75
2022/07/15 10:13:08;;;;;;;;;;;27.70;50.30;;;;;;5055070;28;19948;-74
2022/07/15 10:15:50;;;;;;;;;;;27.70;50.20;;;;;;5054797;28;19916;-74
2022/07/15 10:18:34;;;;;;;;;;;27.80;50.20;;;;;;5055136;28;20305;-74
2022/07/15 10:21:10;;;;;;;;;;;27.80;50.10;;;;;;5054661;28;20363;-75
2022/07/15 10:23:39;;;;;;;;;;;27.90;50.00;;;;;;5054672;28;19909;-74
2022/07/15 10:26:23;;;;;;;;;;;27.90;50.00;;;;;;5054709;28;19928;-75
2022/07/15 10:28:53;;;;;;;;;;;28.00;50.00;;;;;;5054407;28;19939;-75
2022/07/15 10:31:21;;;;;;;;;;;28.00;49.90;;;;;;5054690;28;19913;-73
2022/07/15 10:34:02;;;;;;;;;;;28.10;49.80;;;;;;5054622;28;20042;-76
2022/07/15 10:36:40;;;;;;;;;;;28.10;49.70;;;;;;5054508;28;19979;-75
2022/07/15 10:39:06;;;;;;;;;;;28.20;49.70;;;;;;5057858;28;19921;-74
2022/07/15 10:41:50;;;;;;;;;;;28.30;49.70;;;;;;5074431;28;19912;-75
2022/07/15 10:44:15;;;;;;;;;;;28.40;49.60;;;;;;5075810;28;20003;-74
2022/07/15 10:46:41;;;;;;;;;;;28.40;49.40;;;;;;5057082;28;19955;-75
2022/07/15 10:49:06;;;;;;;;;;;28.50;49.30;;;;;;5056897;28;19928;-74
2022/07/15 10:51:35;;;;;;;;;;;28.60;49.20;;;;;;5074262;28;19913;-74
2022/07/15 10:54:01;;;;;;;;;;;28.70;49.10;;;;;;5074213;28;19908;-75
2022/07/15 10:56:29;;;;;;;;;;;28.80;49.00;;;;;;5056427;28;20282;-75
2022/07/15 10:59:16;;;;;;;;;;;28.90;48.90;;;;;;5073882;28;19916;-74
2022/07/15 11:01:43;;;;;;;;;;;29.00;48.80;;;;;;5056990;28;19978;-75
2022/07/15 11:04:19;;;;;;;;;;;29.10;48.70;;;;;;5074572;28;19916;-75
2022/07/15 11:09:46;;;;;;;;;;;29.30;48.50;;;;;;5074059;28;19917;-75
2022/07/15 11:12:15;;;;;;;;;;;29.40;48.50;;;;;;5074042;28;20011;-75
2022/07/15 11:14:46;;;;;;;;;;;29.40;48.30;;;;;;5074274;28;19995;-75
2022/07/15 11:17:12;;;;;;;;;;;29.50;48.20;;;;;;5074067;28;19954;-75
2022/07/15 11:19:38;;;;;;;;;;;29.60;48.10;;;;;;5073645;28;19916;-75
2022/07/15 11:22:03;;;;;;;;;;;29.70;48.10;;;;;;5074172;28;20315;-75
2022/07/15 11:24:29;;;;;;;;;;;29.70;48.00;;;;;;5073877;28;19909;-74
2022/07/15 11:26:55;;;;;;;;;;;29.70;47.90;;;;;;5074250;28;19908;-74
2022/07/15 11:29:20;;;;;;;;;;;29.70;47.80;;;;;;5073599;28;19917;-75
2022/07/15 11:31:47;;;;;;;;;;;29.80;47.80;;;;;;5073555;28;20007;-74
2022/07/15 11:34:13;;;;;;;;;;;29.80;47.80;;;;;;5073563;28;20374;-74
2022/07/15 11:36:38;;;;;;;;;;;28.40;46.70;;;;;;5074213;28;19939;-73
2022/07/15 11:39:04;;;;;;;;;;;29.90;47.70;;;;;;5055944;28;19924;-74
2022/07/15 11:44:29;;;;;;;;;;;30.00;47.60;;;;;;5074420;28;19915;-73
2022/07/15 11:46:55;;;;;;;;;;;29.90;47.50;;;;;;5075538;28;19917;-75
2022/07/15 11:49:33;;;;;;;;;;;30.00;47.40;;;;;;5056118;28;19923;-74
2022/07/15 11:52:00;;;;;;;;;;;30.00;47.40;;;;;;5073658;28;19915;-74
2022/07/15 11:54:26;;;;;;;;;;;30.00;47.40;;;;;;5056814;28;19914;-75
2022/07/15 11:56:54;;;;;;;;;;;30.00;47.30;;;;;;5077165;28;19991;-74
2022/07/15 11:59:20;;;;;;;;;;;30.00;47.30;;;;;;5078049;28;19935;-75
2022/07/15 12:01:45;;;;;;;;;;;29.90;47.30;;;;;;5077436;28;19908;-74
2022/07/15 12:04:11;;;;;;;;;;;29.90;47.90;;;;;;5077300;28;19913;-75
2022/07/15 12:06:36;;;;;;;;;;;29.90;47.30;;;;;;5077458;28;19915;-74
2022/07/15 12:09:04;;;;;;;;;;;29.90;47.30;;;;;;5077139;28;19921;-74
2022/07/15 12:11:34;;;;;;;;;;;29.90;47.30;;;;;;5077312;28;19935;-74
2022/07/15 12:14:01;;;;;;;;;;;29.90;47.30;;;;;;5077552;28;19955;-75
2022/07/15 12:16:40;;;;;;;;;;;29.80;47.20;;;;;;5077474;28;19999;-75
2022/07/15 12:19:07;;;;;;;;;;;29.80;47.30;;;;;;5077180;28;19909;-74
2022/07/15 12:21:33;;;;;;;;;;;29.70;47.30;;;;;;5076962;28;20436;-75
2022/07/15 12:24:01;;;;;;;;;;;29.70;47.30;;;;;;5076831;28;19909;-74
2022/07/15 12:26:26;;;;;;;;;;;29.70;47.30;;;;;;5077099;28;20324;-75
2022/07/15 12:28:55;;;;;;;;;;;29.70;47.30;;;;;;5076841;28;20035;-75
2022/07/15 12:31:28;;;;;;;;;;;29.70;47.30;;;;;;5076864;28;19938;-75
2022/07/15 12:33:54;;;;;;;;;;;29.60;47.30;;;;;;5076680;28;20066;-75
2022/07/15 12:36:20;;;;;;;;;;;29.60;47.40;;;;;;5076729;28;20367;-75
2022/07/15 12:39:01;;;;;;;;;;;29.60;47.30;;;;;;5076417;28;19912;-74
2022/07/15 12:41:27;;;;;;;;;;;29.50;47.30;;;;;;5076883;28;20354;-75
2022/07/15 12:43:55;;;;;;;;;;;29.60;47.40;;;;;;5076666;28;20326;-75
2022/07/15 12:46:40;;;;;;;;;;;29.50;47.40;;;;;;5076584;28;20011;-74
2022/07/15 12:49:07;;;;;;;;;;;29.50;47.30;;;;;;5076190;28;19927;-75
2022/07/15 12:51:33;;;;;;;;;;;29.50;47.30;;;;;;5076447;28;19963;-74
2022/07/15 12:54:05;;;;;;;;;;;29.40;47.30;;;;;;5076345;28;19909;-74
2022/07/15 12:56:49;;;;;;;;;;;29.30;48.00;;;;;;5058598;28;19915;-73
2022/07/15 12:59:14;;;;;;;;;;;29.20;48.50;;;;;;5076432;28;19908;-74
2022/07/15 13:01:42;;;;;;;;;;;29.20;49.00;;;;;;5076238;28;19978;-74
2022/07/15 13:04:08;;;;;;;;;;;29.20;49.10;;;;;;5076539;28;19913;-74
2022/07/15 13:06:33;;;;;;;;;;;29.20;49.20;;;;;;5076517;28;20000;-75
2022/07/15 13:08:59;;;;;;;;;;;29.30;49.20;;;;;;5076001;28;19960;-75
2022/07/15 13:11:25;;;;;;;;;;;29.50;49.30;;;;;;5076001;28;19955;-74
2022/07/15 13:13:50;;;;;;;;;;;29.70;49.20;;;;;;5075996;28;19954;-75
2022/07/15 13:16:16;;;;;;;;;;;29.90;49.20;;;;;;5075639;28;20255;-74
2022/07/15 13:18:41;;;;;;;;;;;30.10;49.10;;;;;;5075932;28;19913;-75
2022/07/15 13:21:07;;;;;;;;;;;30.20;48.90;;;;;;5075845;28;19915;-75
2022/07/15 13:23:33;;;;;;;;;;;30.30;48.70;;;;;;5076169;28;19916;-74
2022/07/15 13:25:59;;;;;;;;;;;30.30;48.50;;;;;;5076092;28;19955;-75
2022/07/15 13:28:25;;;;;;;;;;;30.30;48.50;;;;;;5075679;28;19966;-74
2022/07/15 13:30:51;;;;;;;;;;;30.20;48.50;;;;;;5075535;28;19924;-74
2022/07/15 13:33:16;;;;;;;;;;;30.20;48.60;;;;;;5075551;28;19915;-75
2022/07/15 13:35:42;;;;;;;;;;;30.20;48.70;;;;;;5057772;28;19913;-75
2022/07/15 13:38:08;;;;;;;;;;;30.20;48.80;;;;;;5075641;28;19915;-75
2022/07/15 13:40:33;;;;;;;;;;;30.20;49.00;;;;;;5075815;28;19974;-75
2022/07/15 13:42:59;;;;;;;;;;;30.20;49.10;;;;;;5075728;28;19909;-75
2022/07/15 13:45:25;;;;;;;;;;;30.20;49.30;;;;;;5075633;28;20262;-73
2022/07/15 13:47:50;;;;;;;;;;;30.20;49.30;;;;;;5075779;28;20270;-75
2022/07/15 13:53:00;;;;;;;;;;;30.20;49.30;;;;;;5075878;28;19916;-74
2022/07/15 13:55:26;;;;;;;;;;;30.20;49.30;;;;;;5057584;28;19908;-75
2022/07/15 13:57:51;;;;;;;;;;;30.20;49.30;;;;;;5075057;28;19920;-75
2022/07/15 14:00:21;;;;;;;;;;;30.20;49.40;;;;;;5057190;28;20366;-74
2022/07/15 14:02:47;;;;;;;;;;;30.10;49.40;;;;;;5075153;28;19916;-74
2022/07/15 14:05:14;;;;;;;;;;;30.20;49.60;;;;;;5075005;28;20022;-74
2022/07/15 14:07:40;;;;;;;;;;;30.50;50.10;;;;;;5057126;28;19912;-75
2022/07/15 14:10:06;;;;;;;;;;;31.10;50.10;;;;;;5074650;28;19916;-75
2022/07/15 14:12:32;;;;;;;;;;;31.90;50.00;;;;;;5074819;28;20007;-75
2022/07/15 14:14:57;;;;;;;;;;;32.80;49.40;;;;;;5075798;28;20263;-75
2022/07/15 14:17:23;;;;;;;;;;;33.60;48.70;;;;;;5074734;28;19915;-75
2022/07/15 14:19:49;;;;;;;;;;;34.10;47.60;;;;;;5074022;28;19908;-74
2022/07/15 14:22:14;;;;;;;;;;;34.20;46.90;;;;;;5074496;28;20346;-74
2022/07/15 14:24:40;;;;;;;;;;;34.40;47.10;;;;;;5074770;28;19913;-74
2022/07/15 14:27:05;;;;;;;;;;;34.80;47.00;;;;;;5074637;28;19908;-75